createdAt,value
2022-08-14T00:02:03.661Z,100079.28
2022-08-14T00:04:41.959Z,100071.86
2022-08-14T00:07:14.114Z,100070.01
2022-08-14T00:10:01.895Z,100071.66
2022-08-14T00:12:37.770Z,100072.33
2022-08-14T00:15:15.354Z,100072.63
2022-08-14T00:17:47.269Z,100076.77
2022-08-14T00:20:24.165Z,100078.22
2022-08-14T00:23:14.677Z,100075.94
2022-08-14T00:25:53.752Z,100076.70
2022-08-14T00:28:32.497Z,100080.74
2022-08-14T00:31:02.604Z,100070.83
2022-08-14T00:33:52.496Z,100065.67
2022-08-14T00:36:37.695Z,100061.40
2022-08-14T00:39:06.469Z,100062.68
2022-08-14T00:41:36.877Z,100068.16
2022-08-14T00:44:07.446Z,100063.41
2022-08-14T00:46:36.991Z,100058.91
2022-08-14T00:49:05.740Z,100064.26
2022-08-14T00:51:34.826Z,100063.87
2022-08-14T00:54:16.854Z,100058.34
2022-08-14T00:56:54.802Z,100048.94
2022-08-14T00:59:27.523Z,100045.05
2022-08-14T01:01:58.487Z,100040.98
2022-08-14T01:04:50.963Z,100035.69
2022-08-14T01:07:20.624Z,100041.27
2022-08-14T01:09:52.766Z,100042.48
2022-08-14T01:12:26.913Z,100039.30
2022-08-14T01:14:58.758Z,100033.20
2022-08-14T01:17:49.589Z,100032.86
2022-08-14T01:20:53.336Z,100024.13
2022-08-14T01:23:21.699Z,100018.66
2022-08-14T01:25:51.027Z,100011.64
2022-08-14T01:28:46.314Z,100004.48
2022-08-14T01:31:12.226Z,100000.39
2022-08-14T01:33:59.636Z,100003.30
2022-08-14T01:36:36.597Z,100001.95
2022-08-14T01:39:13.318Z,100006.69
2022-08-14T01:41:43.229Z,100009.86
2022-08-14T01:44:33.234Z,100010.71
2022-08-14T01:47:01.997Z,100005.86
2022-08-14T01:49:35.261Z,100005.44
2022-08-14T01:52:09.051Z,100014.05
2022-08-14T01:54:58.165Z,100016.52
2022-08-14T01:57:26.407Z,100019.03
2022-08-14T02:00:18.758Z,100020.12
2022-08-14T02:02:46.879Z,100022.42
2022-08-14T02:05:21.337Z,100031.38
2022-08-14T02:07:55.879Z,100030.87
2022-08-14T02:10:46.288Z,100033.68
2022-08-14T02:13:16.675Z,100030.91
2022-08-14T02:15:45.734Z,100026.08
2022-08-14T02:18:16.372Z,100021.05
2022-08-14T02:20:48.302Z,100014.39
2022-08-14T02:23:29.129Z,100008.70
2022-08-14T02:26:24.017Z,100004.83
2022-08-14T02:28:57.941Z,100003.69
2022-08-14T02:31:42.516Z,99998.23
2022-08-14T02:34:26.345Z,99990.25
2022-08-14T02:37:03.924Z,99991.63
2022-08-14T02:39:34.658Z,99989.16
2022-08-14T02:42:04.436Z,99987.16
2022-08-14T02:44:39.550Z,99981.14
2022-08-14T02:47:14.741Z,99982.05
2022-08-14T02:49:42.915Z,99984.27
2022-08-14T02:52:56.049Z,99981.17
2022-08-14T02:55:00.804Z,99980.26
2022-08-14T02:57:39.958Z,99978.75
2022-08-14T03:00:10.117Z,99982.55
2022-08-14T03:02:56.444Z,99978.52
2022-08-14T03:05:29.331Z,99979.27
2022-08-14T03:08:04.751Z,99972.05
2022-08-14T03:10:36.990Z,99965.89
2022-08-14T03:13:13.805Z,99967.05
2022-08-14T03:15:51.026Z,99963.07
2022-08-14T03:18:31.960Z,99961.69
2022-08-14T03:21:01.437Z,99964.91
2022-08-14T03:23:34.071Z,99964.81
2022-08-14T03:26:07.213Z,99963.78
2022-08-14T03:28:36.612Z,99959.35
2022-08-14T03:31:08.346Z,99955.02
2022-08-14T03:33:41.295Z,99957.77
2022-08-14T03:37:39.038Z,99957.53
2022-08-14T03:39:11.592Z,99958.04
2022-08-14T03:41:43.869Z,99960.50
2022-08-14T03:45:19.078Z,99954.63
2022-08-14T03:46:59.689Z,99960.75
2022-08-14T03:49:30.801Z,99962.63
2022-08-14T03:52:01.329Z,99959.67
2022-08-14T03:54:30.396Z,99956.89
2022-08-14T03:57:03.008Z,99956.00
2022-08-14T03:59:31.806Z,99951.79
2022-08-14T04:02:01.700Z,99950.52
2022-08-14T04:04:30.769Z,99946.98
2022-08-14T04:06:59.871Z,99948.20
2022-08-14T04:09:27.798Z,99950.44
2022-08-14T04:11:56.288Z,99955.52
2022-08-14T04:14:25.896Z,99957.75
2022-08-14T04:16:53.539Z,99956.61
2022-08-14T04:19:23.982Z,99959.60
2022-08-14T04:22:02.415Z,99961.41
2022-08-14T04:24:38.449Z,99960.55
2022-08-14T04:27:09.575Z,99957.73
2022-08-14T04:29:42.810Z,99965.25
2022-08-14T04:32:58.211Z,99968.85
2022-08-14T04:35:00.951Z,99973.83
2022-08-14T04:37:47.219Z,99976.35
2022-08-14T04:40:40.762Z,99978.60
2022-08-14T04:43:32.452Z,99981.62
2022-08-14T04:46:08.506Z,99981.31
2022-08-14T04:48:43.277Z,99976.83
2022-08-14T04:51:12.395Z,99980.11
2022-08-14T04:53:43.917Z,99977.02
2022-08-14T04:56:31.227Z,99980.85
2022-08-14T04:59:02.302Z,99977.52
2022-08-14T05:01:39.995Z,99978.33
2022-08-14T05:04:08.764Z,99973.44
2022-08-14T05:06:44.094Z,99969.56
2022-08-14T05:09:14.324Z,99976.86
2022-08-14T05:11:42.549Z,99972.83
2022-08-14T05:14:17.326Z,99972.58
2022-08-14T05:17:01.828Z,99973.17
2022-08-14T05:19:32.555Z,99970.41
2022-08-14T05:22:17.265Z,99971.50
2022-08-14T05:24:50.368Z,99972.33
2022-08-14T05:27:23.153Z,99968.98
2022-08-14T05:29:53.278Z,99964.12
2022-08-14T05:32:21.567Z,99968.17
2022-08-14T05:34:50.502Z,99966.23
2022-08-14T05:37:19.079Z,99967.20
2022-08-14T05:39:46.980Z,99966.23
2022-08-14T05:42:22.014Z,99964.77
2022-08-14T05:44:57.499Z,99964.39
2022-08-14T05:47:28.549Z,99968.05
2022-08-14T05:50:02.271Z,99963.16
2022-08-14T05:52:39.335Z,99966.20
2022-08-14T05:55:08.299Z,99962.17
2022-08-14T05:57:49.035Z,99963.08
2022-08-14T06:00:25.026Z,99963.33
2022-08-14T06:03:00.009Z,99966.08
2022-08-14T06:05:28.823Z,99966.87
2022-08-14T06:07:58.043Z,99963.49
2022-08-14T06:10:28.334Z,99963.84
2022-08-14T06:12:58.053Z,99963.84
2022-08-14T06:15:30.025Z,99962.17
2022-08-14T06:18:00.103Z,99962.92
2022-08-14T06:20:30.029Z,99957.86
2022-08-14T06:22:59.089Z,99956.38
2022-08-14T06:25:26.914Z,99951.88
2022-08-14T06:27:55.937Z,99948.73
2022-08-14T06:30:30.376Z,99957.56
2022-08-14T06:33:13.714Z,99951.64
2022-08-14T06:35:43.527Z,99953.61
2022-08-14T06:38:17.385Z,99953.48
2022-08-14T06:40:45.964Z,99953.70
2022-08-14T06:43:15.195Z,99951.79
2022-08-14T06:45:43.718Z,99955.06
2022-08-14T06:48:18.961Z,99956.77
2022-08-14T06:50:49.769Z,99956.45
2022-08-14T06:53:19.903Z,99949.61
2022-08-14T06:55:58.111Z,99953.83
2022-08-14T06:58:30.928Z,99955.23
2022-08-14T07:01:24.943Z,99954.90
2022-08-14T07:04:23.908Z,99955.72
2022-08-14T07:06:55.530Z,99951.05
2022-08-14T07:09:28.326Z,99954.81
2022-08-14T07:12:56.095Z,99953.32
2022-08-14T07:15:01.587Z,99959.29
2022-08-14T07:17:29.271Z,99957.79
2022-08-14T07:19:59.807Z,99961.69
2022-08-14T07:22:32.880Z,99959.94
2022-08-14T07:25:15.098Z,99962.35
2022-08-14T07:27:42.827Z,99958.41
2022-08-14T07:30:33.835Z,99957.49
2022-08-14T07:32:58.978Z,99952.37
2022-08-14T07:35:37.252Z,99952.45
2022-08-14T07:38:16.610Z,99952.30
2022-08-14T07:40:45.314Z,99950.56
2022-08-14T07:43:14.848Z,99953.91
2022-08-14T07:45:43.188Z,99950.40
2022-08-14T07:48:14.956Z,99952.48
2022-08-14T07:50:45.464Z,99956.24
2022-08-14T07:53:14.262Z,99957.73
2022-08-14T07:55:42.902Z,99957.34
2022-08-14T07:58:21.289Z,99953.81
2022-08-14T08:00:58.749Z,99957.09
2022-08-14T08:03:28.245Z,99961.52
2022-08-14T08:05:58.108Z,99961.00
2022-08-14T08:08:27.722Z,99961.67
2022-08-14T08:11:02.979Z,99967.67
2022-08-14T08:13:31.610Z,99967.16
2022-08-14T08:16:03.251Z,99967.77
2022-08-14T08:18:31.345Z,99962.38
2022-08-14T08:21:00.261Z,99961.48
2022-08-14T08:23:32.615Z,99960.84
2022-08-14T08:26:08.582Z,99960.41
2022-08-14T08:28:36.198Z,99962.83
2022-08-14T08:31:05.253Z,99961.71
2022-08-14T08:33:37.161Z,99960.98
2022-08-14T08:36:06.525Z,99962.38
2022-08-14T08:39:15.556Z,99956.58
2022-08-14T08:41:24.483Z,99958.58
2022-08-14T08:43:54.014Z,99959.83
2022-08-14T08:46:24.340Z,99961.58
2022-08-14T08:51:33.257Z,99962.44
2022-08-14T08:54:15.389Z,99962.45
2022-08-14T08:56:49.031Z,99960.61
2022-08-14T08:59:17.839Z,99960.88
2022-08-14T09:01:52.344Z,99965.98
2022-08-14T09:04:25.325Z,99963.60
2022-08-14T09:07:00.097Z,99964.48
2022-08-14T09:09:54.088Z,99966.45
2022-08-14T09:12:32.233Z,99966.45
2022-08-14T09:15:01.872Z,99970.15
2022-08-14T09:17:29.537Z,99962.90
2022-08-14T09:19:57.085Z,99965.15
2022-08-14T09:22:36.069Z,99961.27
2022-08-14T09:25:16.867Z,99954.48
2022-08-14T09:27:44.571Z,99956.20
2022-08-14T09:30:33.197Z,99956.67
2022-08-14T09:33:10.975Z,99954.66
2022-08-14T09:35:56.580Z,99955.30
2022-08-14T09:38:27.618Z,99956.50
2022-08-14T09:41:14.035Z,99953.02
2022-08-14T09:43:45.880Z,99953.38
2022-08-14T09:46:17.102Z,99954.03
2022-08-14T09:48:57.855Z,99950.20
2022-08-14T09:51:26.088Z,99944.79
2022-08-14T09:54:19.239Z,99939.06
2022-08-14T09:56:56.896Z,99939.34
2022-08-14T09:59:27.865Z,99936.75
2022-08-14T10:01:57.403Z,99933.02
2022-08-14T10:04:36.016Z,99927.96
2022-08-14T10:07:06.009Z,99924.20
2022-08-14T10:09:57.523Z,99928.70
2022-08-14T10:12:44.879Z,99916.48
2022-08-14T10:15:16.760Z,99918.25
2022-08-14T10:17:44.329Z,99914.09
2022-08-14T10:20:39.999Z,99915.46
2022-08-14T10:23:23.033Z,99913.52
2022-08-14T10:25:57.725Z,99912.41
2022-08-14T10:28:39.065Z,99911.52
2022-08-14T10:31:16.564Z,99909.82
2022-08-14T10:34:00.416Z,99911.41
2022-08-14T10:36:34.751Z,99904.47
2022-08-14T10:39:09.516Z,99905.35
2022-08-14T10:41:41.722Z,99901.73
2022-08-14T10:44:21.666Z,99900.66
2022-08-14T10:47:40.378Z,99897.73
2022-08-14T10:49:53.221Z,99899.16
2022-08-14T10:52:24.293Z,99898.19
2022-08-14T10:54:56.402Z,99900.27
2022-08-14T10:57:25.417Z,99897.63
2022-08-14T10:59:56.174Z,99894.66
2022-08-14T11:02:50.214Z,99884.23
2022-08-14T11:05:24.946Z,99888.96
2022-08-14T11:07:56.364Z,99885.23
2022-08-14T11:10:40.856Z,99885.27
2022-08-14T11:13:15.526Z,99879.42
2022-08-14T11:15:43.201Z,99878.27
2022-08-14T11:18:12.112Z,99875.33
2022-08-14T11:20:50.901Z,99873.84
2022-08-14T11:23:22.857Z,99875.00
2022-08-14T11:25:53.462Z,99870.85
2022-08-14T11:28:48.004Z,99867.26
2022-08-14T11:31:11.144Z,99871.66
2022-08-14T11:33:39.522Z,99867.92
2022-08-14T11:36:17.829Z,99865.27
2022-08-14T11:38:46.677Z,99867.50
2022-08-14T11:41:17.059Z,99869.98
2022-08-14T11:43:55.853Z,99869.74
2022-08-14T11:46:30.371Z,99869.48
2022-08-14T11:49:06.350Z,99870.20
2022-08-14T11:51:36.150Z,99873.67
2022-08-14T11:54:33.724Z,99873.91
2022-08-14T11:57:04.491Z,99869.81
2022-08-14T11:59:35.404Z,99865.86
2022-08-14T12:02:38.975Z,99862.96
2022-08-14T12:05:00.405Z,99856.41
2022-08-14T12:07:32.078Z,99852.87
2022-08-14T12:09:59.994Z,99850.41
2022-08-14T12:12:34.930Z,99856.41
2022-08-14T12:15:05.419Z,99853.48
2022-08-14T12:17:47.676Z,99854.95
2022-08-14T12:20:30.261Z,99855.95
2022-08-14T12:23:00.996Z,99861.16
2022-08-14T12:25:29.002Z,99857.16
2022-08-14T12:27:59.079Z,99858.30
2022-08-14T12:30:27.450Z,99854.32
2022-08-14T12:33:03.477Z,99847.05
2022-08-14T12:35:39.667Z,99845.27
2022-08-14T12:38:07.464Z,99840.68
2022-08-14T12:40:35.273Z,99840.98
2022-08-14T12:43:08.953Z,99843.00
2022-08-14T12:45:49.484Z,99844.42
2022-08-14T12:48:21.717Z,99838.28
2022-08-14T12:50:59.363Z,99835.58
2022-08-14T12:53:36.242Z,99836.00
2022-08-14T12:56:21.884Z,99831.27
2022-08-14T12:58:56.492Z,99830.72
2022-08-14T13:01:28.554Z,99824.25
2022-08-14T13:04:10.465Z,99828.03
2022-08-14T13:06:44.733Z,99821.23
2022-08-14T13:09:19.334Z,99821.59
2022-08-14T13:11:49.480Z,99820.63
2022-08-14T13:14:29.887Z,99818.19
2022-08-14T13:16:58.503Z,99814.48
2022-08-14T13:19:28.246Z,99810.99
2022-08-14T13:22:05.785Z,99806.53
2022-08-14T13:24:38.344Z,99798.30
2022-08-14T13:27:10.008Z,99792.17
2022-08-14T13:29:46.533Z,99788.95
2022-08-14T13:32:15.194Z,99783.30
2022-08-14T13:34:48.809Z,99779.66
2022-08-14T13:37:17.277Z,99778.06
2022-08-14T13:39:57.090Z,99774.55
2022-08-14T13:42:30.261Z,99770.44
2022-08-14T13:45:02.328Z,99768.86
2022-08-14T13:47:30.850Z,99765.14
2022-08-14T13:50:00.442Z,99754.00
2022-08-14T13:52:51.987Z,99750.88
2022-08-14T13:55:18.441Z,99750.92
2022-08-14T13:57:59.472Z,99748.36
2022-08-14T14:00:53.189Z,99750.29
2022-08-14T14:03:24.038Z,99746.66
2022-08-14T14:05:54.884Z,99748.19
2022-08-14T14:08:43.315Z,99748.24
2022-08-14T14:11:11.307Z,99749.95
2022-08-14T14:13:44.747Z,99754.73
2022-08-14T14:16:15.595Z,99754.00
2022-08-14T14:18:56.175Z,99754.09
2022-08-14T14:21:28.715Z,99754.21
2022-08-14T14:23:56.977Z,99749.52
2022-08-14T14:26:25.043Z,99747.09
2022-08-14T14:28:55.342Z,99747.98
2022-08-14T14:31:30.088Z,99743.72
2022-08-14T14:34:00.435Z,99742.73
2022-08-14T14:36:29.495Z,99747.98
2022-08-14T14:38:58.212Z,99748.13
2022-08-14T14:41:37.881Z,99745.50
2022-08-14T14:44:16.505Z,99746.36
2022-08-14T14:46:51.005Z,99739.57
2022-08-14T14:49:21.833Z,99737.12
2022-08-14T14:51:51.630Z,99735.30
2022-08-14T14:54:31.871Z,99733.11
2022-08-14T14:57:02.542Z,99733.59
2022-08-14T14:59:35.952Z,99734.14
2022-08-14T15:02:07.855Z,99735.89
2022-08-14T15:04:37.893Z,99738.58
2022-08-14T15:07:06.496Z,99739.88
2022-08-14T15:09:34.582Z,99743.91
2022-08-14T15:12:05.545Z,99747.75
2022-08-14T15:14:55.896Z,99751.89
2022-08-14T15:17:28.655Z,99752.52
2022-08-14T15:20:07.361Z,99750.30
2022-08-14T15:22:36.915Z,99747.80
2022-08-14T15:25:05.261Z,99751.52
2022-08-14T15:27:34.836Z,99752.80
2022-08-14T15:30:02.412Z,99752.17
2022-08-14T15:32:30.300Z,99750.50
2022-08-14T15:35:00.829Z,99746.66
2022-08-14T15:37:32.660Z,99740.23
2022-08-14T15:40:02.344Z,99742.19
2022-08-14T15:42:38.120Z,99744.83
2022-08-14T15:45:10.046Z,99749.09
2022-08-14T15:47:41.633Z,99748.40
2022-08-14T15:50:12.743Z,99753.66
2022-08-14T15:52:44.878Z,99755.04
2022-08-14T15:55:14.509Z,99753.25
2022-08-14T15:58:02.428Z,99755.34
2022-08-14T16:00:53.559Z,99750.98
2022-08-14T16:03:27.582Z,99750.99
2022-08-14T16:06:10.965Z,99750.52
2022-08-14T16:08:43.916Z,99753.91
2022-08-14T16:11:11.901Z,99760.50
2022-08-14T16:13:44.398Z,99759.86
2022-08-14T16:16:47.545Z,99760.67
2022-08-14T16:18:59.578Z,99755.13
2022-08-14T16:21:31.571Z,99755.48
2022-08-14T16:23:59.985Z,99754.81
2022-08-14T16:26:30.095Z,99754.71
2022-08-14T16:29:15.572Z,99751.92
2022-08-14T16:31:44.857Z,99749.58
2022-08-14T16:34:45.014Z,99752.85
2022-08-14T16:37:03.167Z,99749.45
2022-08-14T16:39:30.907Z,99747.63
2022-08-14T16:42:00.582Z,99745.40
2022-08-14T16:44:41.680Z,99744.03
2022-08-14T16:47:17.466Z,99738.52
2022-08-14T16:50:04.311Z,99727.17
2022-08-14T16:52:44.124Z,99716.32
2022-08-14T16:55:13.788Z,99706.19
2022-08-14T16:57:52.002Z,99706.91
2022-08-14T17:00:43.493Z,99707.41
2022-08-14T17:03:12.386Z,99714.21
2022-08-14T17:05:42.946Z,99708.92
2022-08-14T17:08:33.052Z,99706.21
2022-08-14T17:11:01.716Z,99709.17
2022-08-14T17:14:00.027Z,99716.39
2022-08-14T17:16:26.006Z,99712.73
2022-08-14T17:19:00.782Z,99720.86
2022-08-14T17:21:32.668Z,99717.87
2022-08-14T17:24:56.043Z,99712.51
2022-08-14T17:26:55.201Z,99710.08
2022-08-14T17:29:29.447Z,99712.27
2022-08-14T17:32:29.257Z,99722.41
2022-08-14T17:35:10.076Z,99737.37
2022-08-14T17:37:44.890Z,99747.11
2022-08-14T17:40:15.934Z,99751.14
2022-08-14T17:42:53.347Z,99753.27
2022-08-14T17:45:28.144Z,99747.77
2022-08-14T17:47:59.062Z,99749.94
2022-08-14T17:50:55.121Z,99755.39
2022-08-14T17:53:30.515Z,99752.91
2022-08-14T17:56:00.935Z,99744.96
2022-08-14T17:58:38.549Z,99741.02
2022-08-14T18:01:12.682Z,99744.73
2022-08-14T18:03:50.195Z,99744.65
2022-08-14T18:06:38.709Z,99737.86
2022-08-14T18:09:25.234Z,99729.43
2022-08-14T18:11:55.501Z,99727.21
2022-08-14T18:14:32.204Z,99724.55
2022-08-14T18:17:11.725Z,99723.08
2022-08-14T18:19:41.620Z,99719.73
2022-08-14T18:22:23.872Z,99717.61
2022-08-14T18:24:57.353Z,99714.05
2022-08-14T18:27:36.382Z,99716.50
2022-08-14T18:30:33.119Z,99713.30
2022-08-14T18:32:55.343Z,99718.38
2022-08-14T18:35:46.370Z,99723.09
2022-08-14T18:38:25.963Z,99727.42
2022-08-14T18:40:54.905Z,99729.07
2022-08-14T18:43:43.082Z,99733.22
2022-08-14T18:46:59.563Z,99724.00
2022-08-14T18:49:13.244Z,99729.73
2022-08-14T18:51:45.237Z,99732.11
2022-08-14T18:54:27.015Z,99731.55
2022-08-14T18:57:01.414Z,99730.85
2022-08-14T18:59:35.723Z,99730.69
2022-08-14T19:02:22.402Z,99728.64
2022-08-14T19:05:02.794Z,99722.55
2022-08-14T19:07:33.217Z,99713.77
2022-08-14T19:10:03.464Z,99713.59
2022-08-14T19:12:50.114Z,99713.78
2022-08-14T19:15:19.897Z,99712.12
2022-08-14T19:18:14.366Z,99716.40
2022-08-14T19:20:52.880Z,99721.41
2022-08-14T19:23:23.117Z,99724.83
2022-08-14T19:26:36.255Z,99726.31
2022-08-14T19:29:19.969Z,99721.11
2022-08-14T19:31:55.237Z,99720.98
2022-08-14T19:34:35.352Z,99715.73
2022-08-14T19:37:05.942Z,99706.63
2022-08-14T19:39:47.513Z,99699.29
2022-08-14T19:42:46.739Z,99696.58
2022-08-14T19:45:14.894Z,99690.99
2022-08-14T19:47:42.794Z,99689.55
2022-08-14T19:50:31.133Z,99687.45
2022-08-14T19:53:11.416Z,99691.56
2022-08-14T19:55:45.849Z,99695.22
2022-08-14T19:58:13.703Z,99699.43
2022-08-14T20:00:52.305Z,99700.55
2022-08-14T20:03:24.234Z,99708.48
2022-08-14T20:06:05.571Z,99713.03
2022-08-14T20:11:01.102Z,99714.42
2022-08-14T20:12:00.590Z,99713.29
2022-08-14T20:14:29.487Z,99712.57
2022-08-14T20:17:05.614Z,99714.33
2022-08-14T20:19:37.861Z,99713.58
2022-08-14T20:22:36.386Z,99714.38
2022-08-14T20:25:10.400Z,99710.69
2022-08-14T20:27:40.052Z,99701.04
2022-08-14T20:30:29.776Z,99697.89
2022-08-14T20:32:56.769Z,99693.95
2022-08-14T20:35:36.300Z,99686.05
2022-08-14T20:38:30.538Z,99691.23
2022-08-14T20:40:53.601Z,99689.23
2022-08-14T20:43:48.288Z,99694.98
2022-08-14T20:46:29.456Z,99694.02
2022-08-14T20:49:08.737Z,99696.06
2022-08-14T20:51:47.440Z,99690.34
2022-08-14T20:54:33.543Z,99694.30
2022-08-14T20:57:09.293Z,99699.89
2022-08-14T20:59:43.458Z,99698.63
2022-08-14T21:02:38.850Z,99708.44
2022-08-14T21:05:19.538Z,99719.20
2022-08-14T21:07:51.287Z,99716.77
2022-08-14T21:10:33.782Z,99707.48
2022-08-14T21:13:11.902Z,99706.98
2022-08-14T21:15:56.672Z,99706.45
2022-08-14T21:18:28.853Z,99707.52
2022-08-14T21:20:57.790Z,99707.16
2022-08-14T21:23:27.301Z,99706.13
2022-08-14T21:26:00.292Z,99707.12
2022-08-14T21:28:30.172Z,99705.45
2022-08-14T21:31:03.179Z,99706.77
2022-08-14T21:33:30.899Z,99705.33
2022-08-14T21:35:59.339Z,99702.25
2022-08-14T21:38:38.097Z,99702.10
2022-08-14T21:41:50.049Z,99705.76
2022-08-14T21:44:17.717Z,99699.24
2022-08-14T21:46:49.833Z,99694.65
2022-08-14T21:49:38.318Z,99699.82
2022-08-14T21:52:50.532Z,99701.12
2022-08-14T21:54:59.481Z,99695.48
2022-08-14T21:58:45.972Z,99689.38
2022-08-14T22:00:36.061Z,99674.52
2022-08-14T22:03:05.830Z,99675.18
2022-08-14T22:05:33.655Z,99671.27
2022-08-14T22:08:21.595Z,99669.87
2022-08-14T22:10:54.681Z,99662.79
2022-08-14T22:13:24.697Z,99662.08
2022-08-14T22:15:58.200Z,99658.98
2022-08-14T22:18:30.024Z,99656.19
2022-08-14T22:20:57.896Z,99656.23
2022-08-14T22:23:26.025Z,99652.08
2022-08-14T22:25:55.257Z,99652.84
2022-08-14T22:28:25.405Z,99652.51
2022-08-14T22:30:54.798Z,99653.33
2022-08-14T22:33:31.097Z,99650.20
2022-08-14T22:36:00.467Z,99655.92
2022-08-14T22:38:37.879Z,99662.69
2022-08-14T22:41:27.682Z,99662.48
2022-08-14T22:43:56.133Z,99665.11
2022-08-14T22:46:23.698Z,99664.80
2022-08-14T22:48:51.861Z,99662.25
2022-08-14T22:51:21.465Z,99662.84
2022-08-14T22:53:52.378Z,99662.14
2022-08-14T22:56:22.066Z,99669.02
2022-08-14T22:58:53.872Z,99669.65
2022-08-14T23:01:23.650Z,99670.91
2022-08-14T23:03:51.866Z,99666.30
2022-08-14T23:07:02.965Z,99669.67
2022-08-14T23:09:36.490Z,99677.15
2022-08-14T23:11:56.672Z,99678.39
2022-08-14T23:14:29.516Z,99676.38
2022-08-14T23:16:58.520Z,99677.48
2022-08-14T23:19:33.565Z,99678.76
2022-08-14T23:22:03.628Z,99678.77
2022-08-14T23:24:31.392Z,99675.57
2022-08-14T23:27:00.591Z,99676.86
2022-08-14T23:29:31.393Z,99675.20
2022-08-14T23:31:59.445Z,99675.36
2022-08-14T23:34:29.605Z,99673.86
2022-08-14T23:36:57.876Z,99674.41
2022-08-14T23:39:29.731Z,99672.61
2022-08-14T23:42:02.290Z,99674.58
2022-08-14T23:44:35.278Z,99670.98
2022-08-14T23:47:11.857Z,99668.70
2022-08-14T23:49:56.908Z,99663.84
2022-08-14T23:53:06.038Z,99658.31
2022-08-14T23:55:17.754Z,99651.66
2022-08-14T23:57:57.623Z,99645.84
